createdAt,value
2023-04-04T00:00:32.502Z,19.0692
2023-04-04T00:01:34.843Z,19.7692
2023-04-04T00:02:37.213Z,18.7231
2023-04-04T00:03:39.599Z,20.2308
2023-04-04T00:04:41.943Z,19.9692
2023-04-04T00:05:44.170Z,20.0308
2023-04-04T00:06:46.548Z,20.2692
2023-04-04T00:07:48.838Z,20.0308
2023-04-04T00:08:51.191Z,20.1615
2023-04-04T00:09:53.539Z,19.6154
2023-04-04T00:10:55.843Z,19.7846
2023-04-04T00:11:58.179Z,20.5077
2023-04-04T00:13:00.521Z,19.1000
2023-04-04T00:14:02.852Z,20.4154
2023-04-04T00:15:05.189Z,21.4615
2023-04-04T00:16:07.527Z,21.3462
2023-04-04T00:17:09.874Z,19.7077
2023-04-04T00:18:12.249Z,21.2615
2023-04-04T00:19:14.525Z,20.8000
2023-04-04T00:20:16.852Z,20.3231
2023-04-04T00:21:19.186Z,20.0846
2023-04-04T00:22:21.531Z,21.0538
2023-04-04T00:23:23.848Z,19.7846
2023-04-04T00:24:26.174Z,21.3923
2023-04-04T00:25:28.524Z,20.4154
2023-04-04T00:26:33.074Z,19.3462
2023-04-04T00:27:33.180Z,19.8000
2023-04-04T00:28:35.511Z,19.1615
2023-04-04T00:29:37.840Z,18.1692
2023-04-04T00:30:40.452Z,17.9385
2023-04-04T00:31:42.551Z,19.0615
2023-04-04T00:32:44.904Z,19.7538
2023-04-04T00:33:47.188Z,18.2538
2023-04-04T00:34:49.520Z,19.8308
2023-04-04T00:35:51.990Z,18.2154
2023-04-04T00:36:54.201Z,19.6231
2023-04-04T00:37:56.505Z,19.4462
2023-04-04T00:38:58.836Z,18.2077
2023-04-04T00:40:01.169Z,18.0538
2023-04-04T00:41:03.525Z,17.6615
2023-04-04T00:42:05.847Z,17.8846
2023-04-04T00:43:08.159Z,20.6846
2023-04-04T00:44:10.520Z,20.0462
2023-04-04T00:45:12.835Z,19.1077
2023-04-04T00:46:15.386Z,19.1846
2023-04-04T00:47:17.489Z,19.7692
2023-04-04T00:48:19.826Z,18.2231
2023-04-04T00:49:22.156Z,18.9385
2023-04-04T00:50:24.503Z,17.9615
2023-04-04T00:51:26.829Z,18.4000
2023-04-04T00:52:29.198Z,18.7154
2023-04-04T00:53:31.489Z,19.4154
2023-04-04T00:54:33.847Z,19.3538
2023-04-04T00:55:36.149Z,18.5077
2023-04-04T00:56:38.482Z,18.5231
2023-04-04T00:57:40.818Z,18.8538
2023-04-04T00:58:43.139Z,19.9615
2023-04-04T00:59:45.493Z,19.9692
2023-04-04T01:00:47.860Z,21.7846
2023-04-04T01:01:50.140Z,20.5308
2023-04-04T01:02:52.532Z,20.7769
2023-04-04T01:03:54.882Z,20.0077
2023-04-04T01:04:57.146Z,21.2000
2023-04-04T01:05:59.450Z,21.5231
2023-04-04T01:07:01.788Z,20.8769
2023-04-04T01:08:04.124Z,21.4077
2023-04-04T01:09:06.448Z,20.8308
2023-04-04T01:10:08.802Z,21.2231
2023-04-04T01:11:11.113Z,20.5077
2023-04-04T01:12:13.442Z,20.2692
2023-04-04T01:13:15.779Z,19.3923
2023-04-04T01:14:18.105Z,20.3615
2023-04-04T01:15:20.440Z,20.5308
2023-04-04T01:16:22.756Z,21.4000
2023-04-04T01:17:25.093Z,21.2692
2023-04-04T01:18:27.420Z,21.2308
2023-04-04T01:19:29.743Z,21.4154
2023-04-04T01:20:32.098Z,20.0000
2023-04-04T01:21:34.399Z,20.3462
2023-04-04T01:22:36.743Z,20.2846
2023-04-04T01:23:39.060Z,20.5769
2023-04-04T01:24:41.390Z,21.2308
2023-04-04T01:25:43.739Z,21.5231
2023-04-04T01:26:46.067Z,20.7615
2023-04-04T01:27:48.393Z,20.5846
2023-04-04T01:28:50.719Z,20.6538
2023-04-04T01:29:53.053Z,20.6077
2023-04-04T01:30:55.424Z,20.0462
2023-04-04T01:31:57.715Z,20.9385
2023-04-04T01:33:00.120Z,21.0923
2023-04-04T01:34:02.367Z,21.0615
2023-04-04T01:35:04.708Z,20.8769
2023-04-04T01:36:07.100Z,21.6154
2023-04-04T01:37:09.364Z,21.8308
2023-04-04T01:38:11.711Z,22.1231
2023-04-04T01:39:14.029Z,20.5846
2023-04-04T01:40:16.356Z,20.5769
2023-04-04T01:41:18.697Z,21.3231
2023-04-04T01:42:21.024Z,21.0385
2023-04-04T01:43:23.386Z,21.2769
2023-04-04T01:44:25.680Z,21.2923
2023-04-04T01:45:28.007Z,20.5923
2023-04-04T01:46:30.391Z,21.5231
2023-04-04T01:47:32.691Z,20.6923
2023-04-04T01:48:35.024Z,20.8308
2023-04-04T01:49:37.325Z,20.7308
2023-04-04T01:50:40.128Z,21.3231
2023-04-04T01:51:41.990Z,20.0750
2023-04-04T01:52:44.319Z,20.3538
2023-04-04T01:53:46.659Z,21.4154
2023-04-04T01:54:48.980Z,21.0846
2023-04-04T01:55:51.312Z,19.2462
2023-04-04T01:56:53.642Z,19.3385
2023-04-04T01:57:55.979Z,20.8692
2023-04-04T01:58:58.363Z,21.4538
2023-04-04T02:00:00.637Z,21.5231
2023-04-04T02:01:03.603Z,19.7923
2023-04-04T02:02:05.311Z,20.1417
2023-04-04T02:03:07.684Z,21.7538
2023-04-04T02:04:10.025Z,20.1077
2023-04-04T02:05:12.309Z,21.2000
2023-04-04T02:06:14.639Z,22.1615
2023-04-04T02:07:16.976Z,21.5769
2023-04-04T02:08:19.314Z,21.9692
2023-04-04T02:09:21.670Z,22.0692
2023-04-04T02:10:23.971Z,21.1308
2023-04-04T02:11:26.304Z,20.6000
2023-04-04T02:12:28.635Z,19.7000
2023-04-04T02:13:30.971Z,19.7077
2023-04-04T02:14:33.309Z,21.8231
2023-04-04T02:15:35.686Z,22.5615
2023-04-04T02:16:37.961Z,21.5769
2023-04-04T02:17:40.318Z,20.5000
2023-04-04T02:18:42.625Z,21.2846
2023-04-04T02:19:44.968Z,21.3769
2023-04-04T02:20:47.303Z,21.2538
2023-04-04T02:21:49.615Z,21.4923
2023-04-04T02:22:51.949Z,21.6769
2023-04-04T02:23:54.281Z,21.4231
2023-04-04T02:24:56.613Z,21.5231
2023-04-04T02:25:58.956Z,20.2385
2023-04-04T02:27:01.284Z,20.9154
2023-04-04T02:28:03.606Z,19.9615
2023-04-04T02:29:05.939Z,20.8231
2023-04-04T02:30:08.274Z,21.1385
2023-04-04T02:31:10.643Z,21.5077
2023-04-04T02:32:12.926Z,21.4077
2023-04-04T02:33:15.264Z,20.4923
2023-04-04T02:34:17.595Z,21.9692
2023-04-04T02:35:19.931Z,20.4846
2023-04-04T02:36:22.311Z,21.3846
2023-04-04T02:37:24.595Z,21.9692
2023-04-04T02:38:26.924Z,20.5923
2023-04-04T02:39:29.256Z,20.6154
2023-04-04T02:40:31.584Z,21.7462
2023-04-04T02:41:33.931Z,21.9308
2023-04-04T02:42:36.244Z,20.4846
2023-04-04T02:43:38.579Z,21.1615
2023-04-04T02:44:40.906Z,21.1923
2023-04-04T02:45:43.243Z,21.2231
2023-04-04T02:46:45.617Z,21.7385
2023-04-04T02:47:47.931Z,21.1846
2023-04-04T02:48:50.229Z,21.2615
2023-04-04T02:49:52.562Z,21.4385
2023-04-04T02:50:54.899Z,21.4923
2023-04-04T02:51:57.248Z,20.5923
2023-04-04T02:52:59.563Z,21.8538
2023-04-04T02:54:01.896Z,20.4385
2023-04-04T02:55:04.232Z,22.8538
2023-04-04T02:56:06.564Z,20.8538
2023-04-04T02:57:08.917Z,20.8077
2023-04-04T02:58:11.248Z,21.6923
2023-04-04T02:59:13.606Z,21.7385
2023-04-04T03:00:15.893Z,22.0692
2023-04-04T03:01:18.249Z,21.7692
2023-04-04T03:02:20.625Z,21.9846
2023-04-04T03:03:22.968Z,21.7462
2023-04-04T03:04:25.256Z,22.0846
2023-04-04T03:05:27.553Z,22.6077
2023-04-04T03:06:29.888Z,22.5231
2023-04-04T03:07:32.231Z,22.3538
2023-04-04T03:08:34.550Z,21.5692
2023-04-04T03:09:36.875Z,22.2692
2023-04-04T03:10:39.507Z,21.2154
2023-04-04T03:11:41.544Z,22.6583
2023-04-04T03:12:43.891Z,22.0538
2023-04-04T03:13:46.209Z,20.4154
2023-04-04T03:14:48.565Z,20.5231
2023-04-04T03:15:50.877Z,20.5846
2023-04-04T03:16:53.411Z,18.6846
2023-04-04T03:17:55.633Z,20.7385
2023-04-04T03:18:57.880Z,19.4231
2023-04-04T03:20:00.238Z,20.2231
2023-04-04T03:21:02.550Z,20.6308
2023-04-04T03:22:04.883Z,21.7231
2023-04-04T03:23:07.212Z,20.8692
2023-04-04T03:24:09.541Z,21.6385
2023-04-04T03:25:11.889Z,22.8154
2023-04-04T03:26:14.210Z,21.3154
2023-04-04T03:27:16.544Z,22.3692
2023-04-04T03:28:18.872Z,22.5462
2023-04-04T03:29:21.197Z,21.7385
2023-04-04T03:30:23.545Z,22.7692
2023-04-04T03:31:25.876Z,21.5231
2023-04-04T03:32:28.206Z,20.6077
2023-04-04T03:33:30.538Z,21.1308
2023-04-04T03:34:32.866Z,21.8846
2023-04-04T03:35:35.229Z,21.3769
2023-04-04T03:36:37.540Z,22.3538
2023-04-04T03:37:39.875Z,22.8846
2023-04-04T03:38:42.202Z,21.5923
2023-04-04T03:39:44.540Z,22.5769
2023-04-04T03:40:46.894Z,22.4000
2023-04-04T03:41:49.291Z,21.8769
2023-04-04T03:42:51.626Z,22.9077
2023-04-04T03:43:53.954Z,21.7077
2023-04-04T03:44:56.281Z,23.0923
2023-04-04T03:45:58.700Z,21.9077
2023-04-04T03:47:00.947Z,21.4308
2023-04-04T03:48:03.506Z,21.2538
2023-04-04T03:49:05.613Z,21.4077
2023-04-04T03:50:07.939Z,22.0462
2023-04-04T03:51:10.272Z,22.1385
2023-04-04T03:52:12.614Z,21.2769
2023-04-04T03:53:14.930Z,22.8385
2023-04-04T03:54:17.274Z,21.9231
2023-04-04T03:55:19.591Z,23.5000
2023-04-04T03:56:21.937Z,23.2154
2023-04-04T03:57:24.260Z,22.2923
2023-04-04T03:58:26.587Z,23.1846
2023-04-04T03:59:28.982Z,21.0231
2023-04-04T04:00:31.259Z,21.3846
2023-04-04T04:01:33.593Z,20.9231
2023-04-04T04:02:35.979Z,20.9538
2023-04-04T04:03:38.324Z,21.4385
2023-04-04T04:04:40.645Z,20.9846
2023-04-04T04:05:42.928Z,22.0923
2023-04-04T04:06:45.253Z,22.4462
2023-04-04T04:07:47.592Z,22.2462
2023-04-04T04:08:49.935Z,20.9846
2023-04-04T04:09:52.260Z,22.4231
2023-04-04T04:10:54.583Z,20.3462
2023-04-04T04:11:56.974Z,22.5462
2023-04-04T04:12:59.257Z,22.6615
2023-04-04T04:14:01.618Z,20.3462
2023-04-04T04:15:03.931Z,22.0231
2023-04-04T04:16:06.281Z,23.0615
2023-04-04T04:17:08.604Z,22.9462
2023-04-04T04:18:10.969Z,22.5231
2023-04-04T04:19:13.350Z,22.5846
2023-04-04T04:20:15.608Z,22.7154
2023-04-04T04:21:17.956Z,21.9077
2023-04-04T04:22:20.284Z,22.4769
2023-04-04T04:23:22.610Z,21.7538
2023-04-04T04:24:24.956Z,22.3615
2023-04-04T04:25:27.271Z,21.0923
2023-04-04T04:26:29.650Z,21.9692
2023-04-04T04:27:31.940Z,21.8000
2023-04-04T04:28:34.493Z,22.0154
2023-04-04T04:29:36.624Z,19.7538
2023-04-04T04:30:39.141Z,19.4308
2023-04-04T04:31:41.280Z,20.0846
2023-04-04T04:32:43.612Z,19.3308
2023-04-04T04:33:45.940Z,21.4615
2023-04-04T04:34:48.293Z,21.8615
2023-04-04T04:35:50.668Z,20.1923
2023-04-04T04:36:52.939Z,21.0846
2023-04-04T04:37:55.279Z,21.2231
2023-04-04T04:38:57.602Z,21.9077
2023-04-04T04:39:59.968Z,20.2385
2023-04-04T04:41:02.288Z,21.8462
2023-04-04T04:42:04.607Z,21.0231
2023-04-04T04:43:06.945Z,21.3154
2023-04-04T04:44:09.279Z,23.3154
2023-04-04T04:45:11.619Z,21.5923
2023-04-04T04:46:13.941Z,21.0538
2023-04-04T04:47:16.273Z,20.4923
2023-04-04T04:48:18.609Z,21.8385
2023-04-04T04:49:20.977Z,21.4308
2023-04-04T04:50:23.309Z,22.2538
2023-04-04T04:51:25.625Z,22.1846
2023-04-04T04:52:28.005Z,21.1077
2023-04-04T04:53:30.259Z,22.5462
2023-04-04T04:54:32.613Z,22.5385
2023-04-04T04:55:34.929Z,22.6769
2023-04-04T04:56:37.257Z,21.9308
2023-04-04T04:57:39.661Z,22.0308
2023-04-04T04:58:41.929Z,21.9846
2023-04-04T04:59:44.276Z,22.1077
2023-04-04T05:00:46.624Z,22.7538
2023-04-04T05:01:48.947Z,22.8077
2023-04-04T05:02:51.353Z,23.1769
2023-04-04T05:03:53.679Z,22.8385
2023-04-04T05:04:55.930Z,22.6154
2023-04-04T05:05:58.269Z,21.5231
2023-04-04T05:07:00.601Z,21.6000
2023-04-04T05:08:02.935Z,21.9000
2023-04-04T05:09:05.256Z,21.8077
2023-04-04T05:10:07.605Z,21.4462
2023-04-04T05:11:09.957Z,22.8231
2023-04-04T05:12:12.277Z,23.3846
2023-04-04T05:13:14.588Z,22.1538
2023-04-04T05:14:16.926Z,22.5308
2023-04-04T05:15:19.257Z,24.0308
2023-04-04T05:16:21.653Z,21.9462
2023-04-04T05:17:23.972Z,21.6000
2023-04-04T05:18:26.262Z,22.6462
2023-04-04T05:19:28.649Z,21.3846
2023-04-04T05:20:30.942Z,22.5077
2023-04-04T05:21:33.269Z,21.8769
2023-04-04T05:22:35.607Z,20.9462
2023-04-04T05:23:37.926Z,21.2154
2023-04-04T05:24:40.264Z,22.3538
2023-04-04T05:25:42.608Z,21.6538
2023-04-04T05:26:44.948Z,21.8308
2023-04-04T05:27:47.260Z,22.5308
2023-04-04T05:28:49.593Z,21.6385
2023-04-04T05:29:51.935Z,21.7077
2023-04-04T05:30:54.257Z,22.6538
2023-04-04T05:31:56.675Z,21.9154
2023-04-04T05:32:58.989Z,22.3000
2023-04-04T05:34:01.262Z,22.9308
2023-04-04T05:35:03.687Z,23.8077
2023-04-04T05:36:05.946Z,22.6462
2023-04-04T05:37:08.273Z,21.3231
2023-04-04T05:38:10.583Z,22.1077
2023-04-04T05:39:12.920Z,21.8385
2023-04-04T05:40:15.249Z,23.0538
2023-04-04T05:41:17.581Z,23.5615
2023-04-04T05:42:19.933Z,21.7769
2023-04-04T05:43:22.240Z,22.2000
2023-04-04T05:44:24.572Z,21.6615
2023-04-04T05:45:26.912Z,22.7385
2023-04-04T05:46:29.268Z,22.8846
2023-04-04T05:47:31.618Z,23.2846
2023-04-04T05:48:33.896Z,22.6385
2023-04-04T05:49:36.221Z,22.4692
2023-04-04T05:50:38.836Z,22.5000
2023-04-04T05:51:40.883Z,23.1917
2023-04-04T05:52:43.233Z,21.6692
2023-04-04T05:53:45.555Z,23.1769
2023-04-04T05:54:47.880Z,22.9769
2023-04-04T05:55:50.214Z,23.5769
2023-04-04T05:56:52.546Z,22.5615
2023-04-04T05:57:54.898Z,22.9692
2023-04-04T05:58:57.249Z,23.3308
2023-04-04T05:59:59.550Z,23.7154
2023-04-04T06:01:01.870Z,23.5308
2023-04-04T06:02:04.200Z,22.7385
2023-04-04T06:03:06.616Z,20.8923
2023-04-04T06:04:08.852Z,22.8308
2023-04-04T06:05:11.179Z,23.4923
2023-04-04T06:06:13.548Z,24.4846
2023-04-04T06:07:15.852Z,23.1154
2023-04-04T06:08:18.243Z,23.6077
2023-04-04T06:09:20.514Z,23.0692
2023-04-04T06:10:22.838Z,22.7769
2023-04-04T06:11:25.181Z,23.8846
2023-04-04T06:12:27.495Z,22.9846
2023-04-04T06:13:29.848Z,21.9615
2023-04-04T06:14:32.160Z,22.9692
2023-04-04T06:15:34.489Z,23.3231
2023-04-04T06:16:37.045Z,21.5077
2023-04-04T06:17:39.221Z,21.4000
2023-04-04T06:18:41.493Z,22.2077
2023-04-04T06:19:43.800Z,22.0077
2023-04-04T06:20:46.139Z,22.6077
2023-04-04T06:21:48.465Z,22.7077
2023-04-04T06:22:50.784Z,21.3385
2023-04-04T06:23:53.159Z,22.6769
2023-04-04T06:24:55.447Z,23.7000
2023-04-04T06:25:57.790Z,23.8308
2023-04-04T06:27:00.117Z,23.1769
2023-04-04T06:28:02.434Z,23.7538
2023-04-04T06:29:04.854Z,24.8000
2023-04-04T06:30:07.820Z,24.3077
2023-04-04T06:31:09.461Z,24.7833
2023-04-04T06:32:11.756Z,23.7538
2023-04-04T06:33:14.087Z,23.9231
2023-04-04T06:34:16.445Z,24.6000
2023-04-04T06:35:20.066Z,23.1615
2023-04-04T06:36:21.097Z,23.4083
2023-04-04T06:37:23.396Z,23.5231
2023-04-04T06:38:25.727Z,23.7692
2023-04-04T06:39:28.071Z,24.3615
2023-04-04T06:40:30.383Z,24.3000
2023-04-04T06:41:32.720Z,23.9154
2023-04-04T06:42:35.064Z,24.4769
2023-04-04T06:43:37.374Z,22.1769
2023-04-04T06:44:39.720Z,21.5385
2023-04-04T06:45:42.030Z,21.4462
2023-04-04T06:46:44.387Z,22.3154
2023-04-04T06:47:46.807Z,21.2308
2023-04-04T06:48:49.019Z,20.7769
2023-04-04T06:49:51.390Z,23.2000
2023-04-04T06:50:53.672Z,22.7385
2023-04-04T06:51:56.041Z,21.9385
2023-04-04T06:52:58.333Z,23.2000
2023-04-04T06:54:00.664Z,23.2692
2023-04-04T06:55:03.014Z,22.7923
2023-04-04T06:56:05.355Z,23.1692
2023-04-04T06:57:07.655Z,22.9308
2023-04-04T06:58:09.974Z,22.4000
2023-04-04T06:59:12.423Z,21.8769
2023-04-04T07:00:14.679Z,23.0846
2023-04-04T07:01:16.996Z,21.5769
2023-04-04T07:02:19.318Z,21.0923
2023-04-04T07:03:21.644Z,21.8846
2023-04-04T07:04:23.928Z,21.3846
2023-04-04T07:05:26.272Z,21.0308
2023-04-04T07:06:28.589Z,20.8769
2023-04-04T07:07:30.928Z,20.8769
2023-04-04T07:08:36.301Z,20.9231
2023-04-04T07:09:35.593Z,20.6917
2023-04-04T07:10:39.857Z,20.1077
2023-04-04T07:11:40.238Z,21.2167
2023-04-04T07:12:42.563Z,20.8769
2023-04-04T07:13:44.891Z,21.7077
2023-04-04T07:14:47.223Z,20.9077
2023-04-04T07:15:49.601Z,21.3462
2023-04-04T07:16:51.996Z,21.3000
2023-04-04T07:17:54.256Z,21.1154
2023-04-04T07:18:56.565Z,21.5077
2023-04-04T07:19:58.870Z,21.4538
2023-04-04T07:21:01.212Z,20.9538
2023-04-04T07:22:03.529Z,20.1000
2023-04-04T07:23:05.853Z,21.0769
2023-04-04T07:24:08.176Z,21.6846
2023-04-04T07:25:10.541Z,21.3000
2023-04-04T07:26:12.879Z,22.6615
2023-04-04T07:27:15.217Z,21.5769
2023-04-04T07:28:17.489Z,22.1846
2023-04-04T07:29:19.818Z,22.9231
2023-04-04T07:30:22.149Z,23.5615
2023-04-04T07:31:24.525Z,24.0692
2023-04-04T07:32:26.892Z,22.7615
2023-04-04T07:33:29.139Z,22.8692
2023-04-04T07:34:31.476Z,23.1231
2023-04-04T07:35:33.860Z,23.4077
2023-04-04T07:36:36.227Z,23.4231
2023-04-04T07:37:38.454Z,23.0231
2023-04-04T07:38:40.783Z,22.5077
2023-04-04T07:39:43.116Z,22.6154
2023-04-04T07:40:45.444Z,22.1538
2023-04-04T07:41:47.810Z,22.7769
2023-04-04T07:42:50.120Z,23.0769
2023-04-04T07:43:52.448Z,22.8154
2023-04-04T07:44:54.759Z,21.2538
2023-04-04T07:45:57.116Z,21.8231
2023-04-04T07:47:09.369Z,23.0846
2023-04-04T07:48:01.855Z,23.2636
2023-04-04T07:49:04.135Z,22.2462
2023-04-04T07:50:06.472Z,22.9462
2023-04-04T07:51:08.793Z,22.2154
2023-04-04T07:52:11.143Z,23.1000
2023-04-04T07:53:13.457Z,23.6846
2023-04-04T07:54:15.792Z,21.5231
2023-04-04T07:55:18.110Z,20.6615
2023-04-04T07:56:20.449Z,21.2000
2023-04-04T07:57:22.827Z,21.9000
2023-04-04T07:58:25.113Z,22.1615
2023-04-04T07:59:27.488Z,21.7615
2023-04-04T08:00:29.781Z,21.6769
2023-04-04T08:01:32.098Z,20.7308
2023-04-04T08:02:34.486Z,21.4769
2023-04-04T08:03:36.807Z,22.1462
2023-04-04T08:04:39.129Z,23.2154
2023-04-04T08:05:41.410Z,22.9308
2023-04-04T08:06:43.753Z,22.5923
2023-04-04T08:07:46.081Z,22.5923
2023-04-04T08:08:48.412Z,22.8615
2023-04-04T08:09:50.727Z,23.3077
2023-04-04T08:10:53.052Z,23.5462
2023-04-04T08:11:55.384Z,22.0308
2023-04-04T08:12:57.723Z,22.8615
2023-04-04T08:14:00.108Z,22.1154
2023-04-04T08:15:02.367Z,22.3308
2023-04-04T08:16:04.755Z,21.5846
2023-04-04T08:17:07.028Z,22.3538
2023-04-04T08:18:09.417Z,22.3538
2023-04-04T08:19:11.718Z,22.9923
2023-04-04T08:20:14.009Z,21.7615
2023-04-04T08:21:16.333Z,21.9923
2023-04-04T08:22:18.663Z,22.4538
2023-04-04T08:23:20.989Z,21.7769
2023-04-04T08:24:23.332Z,21.7692
2023-04-04T08:25:25.644Z,22.8000
2023-04-04T08:26:27.974Z,21.6462
2023-04-04T08:27:30.316Z,22.4538
2023-04-04T08:28:32.705Z,23.1000
2023-04-04T08:29:35.002Z,22.9385
2023-04-04T08:30:37.561Z,22.8231
2023-04-04T08:31:39.651Z,20.2583
2023-04-04T08:32:42.017Z,22.5769
2023-04-04T08:33:47.150Z,22.1000
2023-04-04T08:34:46.654Z,21.5667
2023-04-04T08:35:49.056Z,22.2538
2023-04-04T08:36:51.304Z,22.0154
2023-04-04T08:37:53.638Z,20.1308
2023-04-04T08:38:55.987Z,22.3615
2023-04-04T08:39:58.295Z,22.6308
2023-04-04T08:41:00.651Z,21.7769
2023-04-04T08:42:02.979Z,22.2000
2023-04-04T08:43:05.294Z,21.8154
2023-04-04T08:44:07.623Z,21.8231
2023-04-04T08:45:09.953Z,22.3154
2023-04-04T08:46:12.336Z,23.0077
2023-04-04T08:47:14.626Z,21.1385
2023-04-04T08:48:16.983Z,20.6692
2023-04-04T08:49:19.285Z,20.2846
2023-04-04T08:50:21.630Z,21.6385
2023-04-04T08:51:23.979Z,22.4000
2023-04-04T08:52:26.287Z,22.8462
2023-04-04T08:53:28.612Z,21.1615
2023-04-04T08:54:30.939Z,21.4308
2023-04-04T08:55:33.281Z,21.6308
2023-04-04T08:56:35.620Z,21.3154
2023-04-04T08:57:37.951Z,22.2846
2023-04-04T08:58:40.386Z,20.7385
2023-04-04T08:59:42.666Z,20.9846
2023-04-04T09:00:44.946Z,20.8308
2023-04-04T09:01:47.289Z,20.3615
2023-04-04T09:02:49.673Z,19.5000
2023-04-04T09:03:51.939Z,19.0923
2023-04-04T09:05:05.434Z,19.3846
2023-04-04T09:05:56.617Z,19.6545
2023-04-04T09:06:58.945Z,19.8923
2023-04-04T09:08:01.289Z,20.3154
2023-04-04T09:09:03.612Z,21.6000
2023-04-04T09:10:05.945Z,20.3769
2023-04-04T09:11:08.268Z,21.3615
2023-04-04T09:12:10.606Z,21.4615
2023-04-04T09:13:16.621Z,21.0923
2023-04-04T09:14:15.269Z,20.6167
2023-04-04T09:15:17.633Z,20.2077
2023-04-04T09:16:19.970Z,19.3462
2023-04-04T09:17:22.278Z,18.0846
2023-04-04T09:18:24.617Z,18.4077
2023-04-04T09:19:26.950Z,18.5615
2023-04-04T09:20:29.293Z,20.4231
2023-04-04T09:21:31.599Z,20.6615
2023-04-04T09:22:33.947Z,18.9231
2023-04-04T09:23:36.260Z,19.7538
2023-04-04T09:24:38.618Z,21.5846
2023-04-04T09:25:42.211Z,20.3846
2023-04-04T09:26:43.260Z,18.3667
2023-04-04T09:27:45.783Z,19.0000
2023-04-04T09:28:47.925Z,19.2154
2023-04-04T09:29:50.276Z,18.5000
2023-04-04T09:30:52.633Z,18.4846
2023-04-04T09:31:54.917Z,18.8923
2023-04-04T09:32:57.312Z,19.9769
2023-04-04T09:33:59.598Z,20.1846
2023-04-04T09:35:01.943Z,20.5769
2023-04-04T09:36:04.254Z,20.7923
2023-04-04T09:37:06.574Z,21.4154
2023-04-04T09:38:08.911Z,21.8077
2023-04-04T09:39:11.251Z,22.8769
2023-04-04T09:40:13.610Z,25.0692
2023-04-04T09:41:16.165Z,23.2231
2023-04-04T09:42:18.330Z,25.3308
2023-04-04T09:43:20.674Z,26.7923
2023-04-04T09:44:23.024Z,26.4923
2023-04-04T09:45:43.895Z,26.0000
2023-04-04T09:46:27.674Z,26.0273
2023-04-04T09:47:31.532Z,28.0615
2023-04-04T09:48:32.377Z,24.8000
2023-04-04T09:49:34.658Z,25.2462
2023-04-04T09:50:36.981Z,22.9462
2023-04-04T09:51:39.327Z,24.6231
2023-04-04T09:52:41.682Z,23.7077
2023-04-04T09:53:43.980Z,25.1615
2023-04-04T09:54:48.370Z,24.4769
2023-04-04T09:55:48.649Z,26.6333
2023-04-04T09:56:50.979Z,25.4615
2023-04-04T09:57:53.328Z,26.1538
2023-04-04T09:59:03.089Z,25.2462
2023-04-04T09:59:58.047Z,25.2182
2023-04-04T10:01:00.303Z,24.9846
2023-04-04T10:02:02.647Z,25.7385
2023-04-04T10:03:05.007Z,25.4538
2023-04-04T10:04:07.361Z,24.6923
2023-04-04T10:05:09.629Z,26.1462
2023-04-04T10:06:11.965Z,25.4923
2023-04-04T10:07:14.323Z,26.7538
2023-04-04T10:08:16.642Z,26.7154
2023-04-04T10:09:18.962Z,27.3692
2023-04-04T10:10:21.309Z,28.5692
2023-04-04T10:11:24.232Z,26.3923
2023-04-04T10:12:25.990Z,25.0333
2023-04-04T10:13:28.303Z,28.1385
2023-04-04T10:14:30.649Z,27.4615
2023-04-04T10:15:33.039Z,27.7462
2023-04-04T10:16:35.315Z,28.0538
2023-04-04T10:17:37.724Z,28.1154
2023-04-04T10:18:39.990Z,29.1769
2023-04-04T10:19:42.323Z,27.1692
2023-04-04T10:20:44.657Z,27.6923
2023-04-04T10:21:46.992Z,26.9769
2023-04-04T10:22:49.341Z,27.6692
2023-04-04T10:23:51.666Z,27.1231
2023-04-04T10:24:53.998Z,30.2231
2023-04-04T10:25:56.332Z,29.1231
2023-04-04T10:26:58.670Z,27.4308
2023-04-04T10:28:01.042Z,27.7615
2023-04-04T10:29:03.348Z,26.6000
2023-04-04T10:30:05.694Z,26.5231
2023-04-04T10:31:08.042Z,27.7462
2023-04-04T10:32:10.482Z,26.7462
2023-04-04T10:33:12.701Z,28.4231
2023-04-04T10:34:15.009Z,28.2692
2023-04-04T10:35:17.347Z,28.6923
2023-04-04T10:36:19.686Z,27.9538
2023-04-04T10:37:22.010Z,27.2308
2023-04-04T10:38:24.357Z,26.2077
2023-04-04T10:39:26.681Z,26.9846
2023-04-04T10:40:29.038Z,28.0231
2023-04-04T10:41:31.455Z,28.8231
2023-04-04T10:42:33.762Z,31.9692
2023-04-04T10:43:36.093Z,31.6385
2023-04-04T10:44:38.447Z,30.1308
2023-04-04T10:45:41.050Z,29.9154
2023-04-04T10:46:43.214Z,29.6692
2023-04-04T10:47:45.524Z,31.9615
2023-04-04T10:48:47.874Z,30.0846
2023-04-04T10:49:50.188Z,29.1308
2023-04-04T10:50:52.506Z,28.7231
2023-04-04T10:51:56.855Z,28.6385
2023-04-04T10:52:57.183Z,29.2000
2023-04-04T10:53:59.512Z,27.5154
2023-04-04T10:55:01.864Z,26.7692
2023-04-04T10:56:04.197Z,27.6692
2023-04-04T10:57:06.524Z,29.0231
2023-04-04T10:58:08.862Z,26.4308
2023-04-04T10:59:11.273Z,28.2538
2023-04-04T11:00:13.571Z,28.7692
2023-04-04T11:01:15.986Z,29.0923
2023-04-04T11:02:18.295Z,29.6308
2023-04-04T11:03:20.606Z,28.5385
2023-04-04T11:04:22.998Z,29.0692
2023-04-04T11:05:25.311Z,29.4615
2023-04-04T11:06:27.610Z,30.3385
2023-04-04T11:07:29.958Z,30.6615
2023-04-04T11:08:32.285Z,31.6769
2023-04-04T11:09:34.635Z,32.1077
2023-04-04T11:10:36.965Z,31.1615
2023-04-04T11:11:39.295Z,30.1077
2023-04-04T11:12:41.657Z,27.3769
2023-04-04T11:13:43.977Z,29.0462
2023-04-04T11:14:46.310Z,30.2308
2023-04-04T11:15:48.662Z,28.6077
2023-04-04T11:16:51.041Z,29.7769
2023-04-04T11:17:53.375Z,30.8615
2023-04-04T11:18:55.656Z,31.1462
2023-04-04T11:19:57.995Z,30.0615
2023-04-04T11:21:00.323Z,28.4154
2023-04-04T11:22:02.682Z,28.8538
2023-04-04T11:23:05.296Z,31.7846
2023-04-04T11:24:07.342Z,32.0385
2023-04-04T11:25:09.680Z,30.4538
2023-04-04T11:26:12.891Z,30.5846
2023-04-04T11:27:14.370Z,29.9583
2023-04-04T11:28:16.733Z,31.4000
2023-04-04T11:29:19.039Z,30.1231
2023-04-04T11:30:21.382Z,31.3538
2023-04-04T11:31:23.768Z,29.8000
2023-04-04T11:32:26.092Z,31.4308
2023-04-04T11:33:28.426Z,30.7308
2023-04-04T11:34:30.741Z,30.8077
2023-04-04T11:35:33.079Z,29.4923
2023-04-04T11:36:35.415Z,30.1000
2023-04-04T11:37:37.849Z,30.2000
2023-04-04T11:38:40.304Z,29.7077
2023-04-04T11:39:42.501Z,30.1923
2023-04-04T11:40:44.841Z,30.4231
2023-04-04T11:41:47.185Z,29.4538
2023-04-04T11:42:49.517Z,30.4538
2023-04-04T11:43:51.863Z,27.9615
2023-04-04T11:44:54.197Z,28.9308
2023-04-04T11:45:56.587Z,29.8308
2023-04-04T11:46:58.880Z,26.7231
2023-04-04T11:48:01.416Z,27.7769
2023-04-04T11:49:03.570Z,27.6154
2023-04-04T11:50:05.935Z,28.4000
2023-04-04T11:51:08.237Z,28.5923
2023-04-04T11:52:10.580Z,27.8385
2023-04-04T11:53:12.913Z,28.3154
2023-04-04T11:54:15.257Z,29.9308
2023-04-04T11:55:17.610Z,28.6231
2023-04-04T11:56:19.935Z,29.2231
2023-04-04T11:57:22.276Z,28.0000
2023-04-04T11:58:24.616Z,29.7846
2023-04-04T11:59:27.001Z,30.0308
2023-04-04T12:00:29.331Z,29.8923
2023-04-04T12:01:31.661Z,30.7385
2023-04-04T12:02:34.144Z,31.2923
2023-04-04T12:03:36.416Z,29.0385
2023-04-04T12:04:41.162Z,28.7769
2023-04-04T12:05:41.371Z,29.2333
2023-04-04T12:06:43.360Z,29.5333
2023-04-04T12:07:45.704Z,27.3462
2023-04-04T12:08:48.040Z,27.0538
2023-04-04T12:09:50.390Z,27.2769
2023-04-04T12:10:52.752Z,28.5769
2023-04-04T12:11:55.085Z,27.5231
2023-04-04T12:12:57.425Z,28.8154
2023-04-04T12:13:59.779Z,30.9615
2023-04-04T12:15:14.580Z,29.7923
2023-04-04T12:16:04.475Z,28.0545
2023-04-04T12:17:06.802Z,27.2692
2023-04-04T12:18:09.178Z,27.7538
2023-04-04T12:19:11.478Z,30.2833
2023-04-04T12:20:13.813Z,31.0000
2023-04-04T12:21:16.165Z,30.0769
2023-04-04T12:22:18.509Z,30.2308
2023-04-04T12:23:20.876Z,28.2692
2023-04-04T12:24:23.221Z,29.5385
2023-04-04T12:25:25.517Z,28.8769
2023-04-04T12:26:27.872Z,29.8769
2023-04-04T12:27:30.216Z,30.8462
2023-04-04T12:28:32.562Z,28.9692
2023-04-04T12:29:34.920Z,28.4385
2023-04-04T12:30:37.259Z,27.2769
2023-04-04T12:31:39.611Z,27.8308
2023-04-04T12:32:42.045Z,25.9538
2023-04-04T12:33:44.346Z,27.1692